Catherine — 9HA4113 — position and weather

sailwx.info

Track history (hours):
 
Tides and Currents Weather Stations Pressure Air Temp Water Temp Dewpoint Dewpoint Depression Visibility Wind Speed Wind Dir Waves Ship Positions

Catherine

Last reported at 2017-Nov-22 21:29 UTC. Time now 2017-Nov-22 21:58 UTC.
Position N 47°31' W 005°19'.

Length 182 m; draft 7.1 m.

Type: Ship (hazmat cat A). MMSI: 249107000.

Date/timePositionNaut miles runAvg speedWind from/ knotsBaromVisibWave heightAir tempDewpointWater temp
2017-Nov-22 21:29N 47°31' W 005°19'  
2017-Nov-19 05:17N 46°56' W 007°18'415.9
2017-Nov-19 05:00N 47°00' W 007°15'915.6
2017-Nov-19 04:26N 47°08' W 007°09'716.2
2017-Nov-19 04:00N 47°14' W 007°04'816.0
2017-Nov-19 03:29N 47°22' W 006°59'715.3
2017-Nov-19 03:00N 47°28' W 006°54'814.9
2017-Nov-19 02:30N 47°35' W 006°48'714.6
2017-Nov-19 02:00N 47°41' W 006°43'714.6
2017-Nov-19 01:30N 47°47' W 006°38'814.7
2017-Nov-19 00:58N 47°54' W 006°32'714.9
2017-Nov-19 00:30N 48°00' W 006°28'715.1
2017-Nov-19 00:00N 48°07' W 006°22'815.6
2017-Nov-18 23:30N 48°14' W 006°17'815.9
2017-Nov-18 23:00N 48°21' W 006°12'816.5
2017-Nov-18 22:30N 48°29' W 006°07'816.6
2017-Nov-18 22:00N 48°36' W 006°01'917.1
2017-Nov-18 21:27N 48°44' W 005°55'817.1
2017-Nov-18 20:59N 48°51' W 005°48'916.6
2017-Nov-18 20:28N 48°56' W 005°37'816.4
2017-Nov-18 20:00N 48°60' W 005°27'1015.8
2017-Nov-18 19:22N 49°05' W 005°13'515.1
2017-Nov-18 19:00N 49°08' W 005°06'815.0
2017-Nov-18 18:28N 49°12' W 004°56'1114.7
2017-Nov-18 17:43N 49°17' W 004°41'814.2
2017-Nov-18 17:11N 49°21' W 004°31'314.2
2017-Nov-18 17:00N 49°22' W 004°28'814.0
2017-Nov-18 16:25N 49°26' W 004°17'814.1
2017-Nov-18 15:53N 49°30' W 004°07'1414.6
2017-Nov-18 14:56N 49°37' W 003°48'815.4
2017-Nov-18 14:24N 49°42' W 003°38'716.1
2017-Nov-18 13:56N 49°46' W 003°28'716.8
2017-Nov-18 13:30N 49°49' W 003°18'917.2
2017-Nov-18 13:00N 49°53' W 003°07'917.8
2017-Nov-18 12:30N 49°57' W 002°54'917.6
2017-Nov-18 12:00N 50°00' W 002°41'2216.7
2017-Nov-18 10:41N 50°07' W 002°08'316.3
2017-Nov-18 10:30N 50°08' W 002°04'816.1
2017-Nov-18 10:00N 50°10' W 001°52'815.2
2017-Nov-18 09:30N 50°12' W 001°41'714.6
2017-Nov-18 09:00N 50°14' W 001°30'714.2
2017-Nov-18 08:30N 50°16' W 001°19'3813.8
2017-Nov-18 05:45N 50°27' W 000°21'415.0
2017-Nov-18 05:31N 50°28' W 000°16'815.7
2017-Nov-18 05:00N 50°30' W 000°04'816.3
2017-Nov-18 04:31N 50°32' E 000°08'816.8
2017-Nov-18 04:00N 50°35' E 000°21'816.9
2017-Nov-18 03:31N 50°37' E 000°33'816.6
2017-Nov-18 03:00N 50°42' E 000°44'816.3
2017-Nov-18 02:30N 50°47' E 000°55'815.6
2017-Nov-18 02:01N 50°51' E 001°05'815.1
2017-Nov-18 01:31N 50°56' E 001°14'714.1
2017-Nov-18 01:00N 51°01' E 001°22'713.3
2017-Nov-18 00:31N 51°05' E 001°30'612.8
2017-Nov-18 00:01N 51°09' E 001°38'713.2
2017-Nov-17 23:31N 51°14' E 001°46'714.2
2017-Nov-17 23:01N 51°20' E 001°52'714.8
2017-Nov-17 22:30N 51°26' E 001°58'815.7
2017-Nov-17 22:00N 51°32' E 002°07'816.2
2017-Nov-17 21:29N 51°38' E 002°16'5115.8
2017-Nov-17 18:14N 52°03' E 003°29'417.0
2017-Nov-17 18:00N 52°03' E 003°35'816.6
2017-Nov-17 17:31N 52°03' E 003°48'5 9.8
2017-Nov-17 17:00N 52°02' E 003°56'714.9
2017-Nov-17 16:31N 51°58' E 004°06'4 7.3
2017-Nov-17 16:01N 51°56' E 004°11'3 5.6
2017-Nov-17 15:31N 51°54' E 004°14'0 0.9
2017-Nov-17 15:00N 51°54' E 004°14'0 0.0
2017-Nov-17 14:29N 51°54' E 004°14'0 0.0
2017-Nov-17 13:59N 51°54' E 004°14'0 0.0
2017-Nov-17 13:29N 51°54' E 004°14'0 0.0
2017-Nov-17 12:59N 51°54' E 004°14'0 0.0
2017-Nov-17 12:29N 51°54' E 004°14'0 0.0
2017-Nov-17 11:59N 51°54' E 004°14'0 0.0
2017-Nov-17 11:29N 51°54' E 004°14'0 0.0
2017-Nov-17 10:59N 51°54' E 004°14'0 0.0
2017-Nov-17 10:29N 51°54' E 004°14'0 0.0
2017-Nov-17 09:59N 51°54' E 004°14'0 0.0
2017-Nov-17 09:29N 51°54' E 004°14'0 0.0
2017-Nov-17 08:59N 51°54' E 004°14'0 0.0
2017-Nov-17 08:29N 51°54' E 004°14'0 0.0
2017-Nov-17 07:59N 51°54' E 004°14'0 0.0
2017-Nov-17 07:29N 51°54' E 004°14'0 0.0
2017-Nov-17 06:56N 51°54' E 004°14'0 0.0
2017-Nov-17 06:29N 51°54' E 004°14'0 0.0
2017-Nov-17 05:59N 51°54' E 004°14'0 0.0
2017-Nov-17 05:29N 51°54' E 004°14'0 0.0
2017-Nov-17 04:59N 51°54' E 004°14'0 0.1
2017-Nov-17 04:30N 51°54' E 004°14'2 4.0
2017-Nov-17 04:00N 51°55' E 004°13'4 8.2
2017-Nov-17 03:30N 51°58' E 004°07'612.7
2017-Nov-17 03:00N 52°02' E 003°59'3 6.8
2017-Nov-17 02:31N 52°00' E 003°54'4 7.6
2017-Nov-17 02:01N 51°59' E 003°48'510.5
2017-Nov-17 01:30N 51°57' E 003°40'5415.7
2017-Nov-16 22:03N 51°33' E 002°22'116.6
2017-Nov-16 22:00N 51°33' E 002°21'816.6
2017-Nov-16 21:31N 51°26' E 002°14'816.8
2017-Nov-16 21:00N 51°18' E 002°08'816.3
2017-Nov-16 20:31N 51°12' E 001°60'816.4
2017-Nov-16 20:00N 51°07' E 001°49'816.0
2017-Nov-16 19:30N 51°02' E 001°39'815.9
2017-Nov-16 19:00N 50°56' E 001°31'915.9
2017-Nov-16 18:26N 50°48' E 001°24'816.3
2017-Nov-16 17:58N 50°41' E 001°18'1317.4
2017-Nov-16 17:13N 50°33' E 001°03'517.3
2017-Nov-16 16:55N 50°30' E 000°56'817.7
2017-Nov-16 16:29N 50°28' E 000°44'1317.5
2017-Nov-16 15:46N 50°25' E 000°25'417.3
2017-Nov-16 15:30N 50°23' E 000°18'917.2
2017-Nov-16 15:00N 50°20' E 000°06'917.0
2017-Nov-16 14:30N 50°18' W 000°07'3716.0
2017-Nov-16 12:11N 50°09' W 001°04'315.6
2017-Nov-16 12:00N 50°08' W 001°08'815.7
2017-Nov-16 11:30N 50°06' W 001°19'816.0
2017-Nov-16 11:00N 50°04' W 001°31'816.5
2017-Nov-16 10:31N 50°02' W 001°44'917.1
2017-Nov-16 10:00N 49°59' W 001°56'917.8
2017-Nov-16 09:30N 49°56' W 002°09'1218.4
2017-Nov-16 08:50N 49°53' W 002°28'718.7
2017-Nov-16 08:28N 49°51' W 002°39'918.7
2017-Nov-16 08:00N 49°49' W 002°51'1018.8
2017-Nov-16 07:28N 49°43' W 003°04'919.0
2017-Nov-16 06:59N 49°39' W 003°17'1318.8
2017-Nov-16 06:16N 49°32' W 003°35'518.7
2017-Nov-16 06:00N 49°30' W 003°42'1018.8
2017-Nov-16 05:28N 49°25' W 003°55'1319.0
2017-Nov-16 04:47N 49°18' W 004°12'719.2
2017-Nov-16 04:27N 49°15' W 004°21'919.3
2017-Nov-16 04:00N 49°11' W 004°32'1319.4
2017-Nov-16 03:19N 49°04' W 004°50'619.5
2017-Nov-16 03:00N 49°01' W 004°58'1019.5
2017-Nov-16 02:30N 48°56' W 005°11'1019.5
2017-Nov-16 02:00N 48°51' W 005°23'1119.3
2017-Nov-16 01:26N 48°45' W 005°37'1119.5
2017-Nov-16 00:52N 48°35' W 005°45'1018.9
2017-Nov-16 00:22N 48°26' W 005°41'719.1
2017-Nov-16 00:00N 48°19' W 005°38'1018.8
2017-Nov-15 23:30N 48°10' W 005°34'918.8
2017-Nov-15 23:00N 48°01' W 005°30'1018.8
2017-Nov-15 22:28N 47°51' W 005°26'918.4
2017-Nov-15 21:59N 47°43' W 005°23'918.5
2017-Nov-15 21:30N 47°34' W 005°19'1118.3
2017-Nov-15 20:55N 47°24' W 005°15'818.4
2017-Nov-15 20:30N 47°16' W 005°12'918.3
2017-Nov-15 20:00N 47°08' W 005°09'918.1
2017-Nov-15 19:30N 46°59' W 005°05'1218.2
2017-Nov-15 18:52N 46°47' W 005°01'1417.8
2017-Nov-15 18:06N 46°34' W 004°56'16917.9
2017-Nov-15 08:40N 43°52' W 003°53'318.4
2017-Nov-15 08:30N 43°49' W 003°52'918.4
2017-Nov-15 08:00N 43°40' W 003°48'918.1
2017-Nov-15 07:30N 43°31' W 003°46'5 9.5
2017-Nov-15 07:00N 43°27' W 003°49'0 0.2
2017-Nov-15 06:29N 43°27' W 003°49'0 0.0
2017-Nov-15 05:59N 43°27' W 003°49'0 0.0
2017-Nov-15 05:29N 43°27' W 003°49'0 0.0
2017-Nov-15 04:59N 43°27' W 003°49'0 0.0
2017-Nov-15 04:29N 43°27' W 003°49'0 0.0
2017-Nov-15 03:53N 43°27' W 003°49'0 0.0
2017-Nov-15 03:29N 43°27' W 003°49'0 0.0
2017-Nov-15 02:59N 43°27' W 003°49'0 0.0
2017-Nov-15 02:29N 43°27' W 003°49'0 0.0
2017-Nov-15 01:59N 43°27' W 003°49'0 0.0
2017-Nov-15 01:30N 43°27' W 003°49'3 5.5
2017-Nov-15 01:00N 43°28' W 003°45'2 4.9
2017-Nov-15 00:30N 43°30' W 003°47'713.1
2017-Nov-15 00:01N 43°32' W 003°55'816.6
2017-Nov-14 23:30N 43°33' W 004°07'5216.3
2017-Nov-14 20:18N 43°41' W 005°18'516.0
2017-Nov-14 20:00N 43°42' W 005°24'816.0
2017-Nov-14 19:30N 43°43' W 005°36'815.9
2017-Nov-14 19:00N 43°45' W 005°46'1015.7
2017-Nov-14 18:23N 43°45' W 005°60'815.8
2017-Nov-14 17:51N 43°46' W 006°11'4115.8
2017-Nov-14 15:16N 43°48' W 007°08'515.7
2017-Nov-14 14:56N 43°48' W 007°15'715.9
2017-Nov-14 14:30N 43°49' W 007°24'815.6
2017-Nov-14 14:01N 43°49' W 007°35'1115.0
2017-Nov-14 13:16N 43°50' W 007°51'415.6
2017-Nov-14 12:59N 43°50' W 007°57'15712.0
2017-Nov-13 23:57N 41°18' W 008°50'716.6
2017-Nov-13 23:30N 41°12' W 008°46'3 5.7
2017-Nov-13 22:58N 41°11' W 008°42'0 0.0
2017-Nov-13 22:28N 41°11' W 008°42'0 0.0
2017-Nov-13 21:58N 41°11' W 008°42'  
Track history (hours):
 
Tides and Currents Weather Stations Pressure Air Temp Water Temp Dewpoint Dewpoint Depression Visibility Wind Speed Wind Dir Waves Ship Positions

Catherine

Last reported at 2017-Nov-22 21:29 UTC. Time now 2017-Nov-22 21:58 UTC.
Position N 47°31' W 005°19'.

Length 182 m; draft 7.1 m.

Type: Ship (hazmat cat A). MMSI: 249107000.

Date/timePositionNaut miles runAvg speedWind from/ knotsBaromVisibWave heightAir tempDewpointWater temp
2017-Nov-22 21:29N 47°31' W 005°19'  
2017-Nov-19 05:17N 46°56' W 007°18'415.9
2017-Nov-19 05:00N 47°00' W 007°15'915.6
2017-Nov-19 04:26N 47°08' W 007°09'716.2
2017-Nov-19 04:00N 47°14' W 007°04'816.0
2017-Nov-19 03:29N 47°22' W 006°59'715.3
2017-Nov-19 03:00N 47°28' W 006°54'814.9
2017-Nov-19 02:30N 47°35' W 006°48'714.6
2017-Nov-19 02:00N 47°41' W 006°43'714.6
2017-Nov-19 01:30N 47°47' W 006°38'814.7
2017-Nov-19 00:58N 47°54' W 006°32'714.9
2017-Nov-19 00:30N 48°00' W 006°28'715.1
2017-Nov-19 00:00N 48°07' W 006°22'815.6
2017-Nov-18 23:30N 48°14' W 006°17'815.9
2017-Nov-18 23:00N 48°21' W 006°12'816.5
2017-Nov-18 22:30N 48°29' W 006°07'816.6
2017-Nov-18 22:00N 48°36' W 006°01'917.1
2017-Nov-18 21:27N 48°44' W 005°55'817.1
2017-Nov-18 20:59N 48°51' W 005°48'916.6
2017-Nov-18 20:28N 48°56' W 005°37'816.4
2017-Nov-18 20:00N 48°60' W 005°27'1015.8
2017-Nov-18 19:22N 49°05' W 005°13'515.1
2017-Nov-18 19:00N 49°08' W 005°06'815.0
2017-Nov-18 18:28N 49°12' W 004°56'1114.7
2017-Nov-18 17:43N 49°17' W 004°41'814.2
2017-Nov-18 17:11N 49°21' W 004°31'314.2
2017-Nov-18 17:00N 49°22' W 004°28'814.0
2017-Nov-18 16:25N 49°26' W 004°17'814.1
2017-Nov-18 15:53N 49°30' W 004°07'1414.6
2017-Nov-18 14:56N 49°37' W 003°48'815.4
2017-Nov-18 14:24N 49°42' W 003°38'716.1
2017-Nov-18 13:56N 49°46' W 003°28'716.8
2017-Nov-18 13:30N 49°49' W 003°18'917.2
2017-Nov-18 13:00N 49°53' W 003°07'917.8
2017-Nov-18 12:30N 49°57' W 002°54'917.6
2017-Nov-18 12:00N 50°00' W 002°41'2216.7
2017-Nov-18 10:41N 50°07' W 002°08'316.3
2017-Nov-18 10:30N 50°08' W 002°04'816.1
2017-Nov-18 10:00N 50°10' W 001°52'815.2
2017-Nov-18 09:30N 50°12' W 001°41'714.6
2017-Nov-18 09:00N 50°14' W 001°30'714.2
2017-Nov-18 08:30N 50°16' W 001°19'3813.8
2017-Nov-18 05:45N 50°27' W 000°21'415.0
2017-Nov-18 05:31N 50°28' W 000°16'815.7
2017-Nov-18 05:00N 50°30' W 000°04'816.3
2017-Nov-18 04:31N 50°32' E 000°08'816.8
2017-Nov-18 04:00N 50°35' E 000°21'816.9
2017-Nov-18 03:31N 50°37' E 000°33'816.6
2017-Nov-18 03:00N 50°42' E 000°44'816.3
2017-Nov-18 02:30N 50°47' E 000°55'815.6
2017-Nov-18 02:01N 50°51' E 001°05'815.1
2017-Nov-18 01:31N 50°56' E 001°14'714.1
2017-Nov-18 01:00N 51°01' E 001°22'713.3
2017-Nov-18 00:31N 51°05' E 001°30'612.8
2017-Nov-18 00:01N 51°09' E 001°38'713.2
2017-Nov-17 23:31N 51°14' E 001°46'714.2
2017-Nov-17 23:01N 51°20' E 001°52'714.8
2017-Nov-17 22:30N 51°26' E 001°58'815.7
2017-Nov-17 22:00N 51°32' E 002°07'816.2
2017-Nov-17 21:29N 51°38' E 002°16'5115.8
2017-Nov-17 18:14N 52°03' E 003°29'417.0
2017-Nov-17 18:00N 52°03' E 003°35'816.6
2017-Nov-17 17:31N 52°03' E 003°48'5 9.8
2017-Nov-17 17:00N 52°02' E 003°56'714.9
2017-Nov-17 16:31N 51°58' E 004°06'4 7.3
2017-Nov-17 16:01N 51°56' E 004°11'3 5.6
2017-Nov-17 15:31N 51°54' E 004°14'0 0.9
2017-Nov-17 15:00N 51°54' E 004°14'0 0.0
2017-Nov-17 14:29N 51°54' E 004°14'0 0.0
2017-Nov-17 13:59N 51°54' E 004°14'0 0.0
2017-Nov-17 13:29N 51°54' E 004°14'0 0.0
2017-Nov-17 12:59N 51°54' E 004°14'0 0.0
2017-Nov-17 12:29N 51°54' E 004°14'0 0.0
2017-Nov-17 11:59N 51°54' E 004°14'0 0.0
2017-Nov-17 11:29N 51°54' E 004°14'0 0.0
2017-Nov-17 10:59N 51°54' E 004°14'0 0.0
2017-Nov-17 10:29N 51°54' E 004°14'0 0.0
2017-Nov-17 09:59N 51°54' E 004°14'0 0.0
2017-Nov-17 09:29N 51°54' E 004°14'0 0.0
2017-Nov-17 08:59N 51°54' E 004°14'0 0.0
2017-Nov-17 08:29N 51°54' E 004°14'0 0.0
2017-Nov-17 07:59N 51°54' E 004°14'0 0.0
2017-Nov-17 07:29N 51°54' E 004°14'0 0.0
2017-Nov-17 06:56N 51°54' E 004°14'0 0.0
2017-Nov-17 06:29N 51°54' E 004°14'0 0.0
2017-Nov-17 05:59N 51°54' E 004°14'0 0.0
2017-Nov-17 05:29N 51°54' E 004°14'0 0.0
2017-Nov-17 04:59N 51°54' E 004°14'0 0.1
2017-Nov-17 04:30N 51°54' E 004°14'2 4.0
2017-Nov-17 04:00N 51°55' E 004°13'4 8.2
2017-Nov-17 03:30N 51°58' E 004°07'612.7
2017-Nov-17 03:00N 52°02' E 003°59'3 6.8
2017-Nov-17 02:31N 52°00' E 003°54'4 7.6
2017-Nov-17 02:01N 51°59' E 003°48'510.5
2017-Nov-17 01:30N 51°57' E 003°40'5415.7
2017-Nov-16 22:03N 51°33' E 002°22'116.6
2017-Nov-16 22:00N 51°33' E 002°21'816.6
2017-Nov-16 21:31N 51°26' E 002°14'816.8
2017-Nov-16 21:00N 51°18' E 002°08'816.3
2017-Nov-16 20:31N 51°12' E 001°60'816.4
2017-Nov-16 20:00N 51°07' E 001°49'816.0
2017-Nov-16 19:30N 51°02' E 001°39'815.9
2017-Nov-16 19:00N 50°56' E 001°31'915.9
2017-Nov-16 18:26N 50°48' E 001°24'816.3
2017-Nov-16 17:58N 50°41' E 001°18'1317.4
2017-Nov-16 17:13N 50°33' E 001°03'517.3
2017-Nov-16 16:55N 50°30' E 000°56'817.7
2017-Nov-16 16:29N 50°28' E 000°44'1317.5
2017-Nov-16 15:46N 50°25' E 000°25'417.3
2017-Nov-16 15:30N 50°23' E 000°18'917.2
2017-Nov-16 15:00N 50°20' E 000°06'917.0
2017-Nov-16 14:30N 50°18' W 000°07'3716.0
2017-Nov-16 12:11N 50°09' W 001°04'315.6
2017-Nov-16 12:00N 50°08' W 001°08'815.7
2017-Nov-16 11:30N 50°06' W 001°19'816.0
2017-Nov-16 11:00N 50°04' W 001°31'816.5
2017-Nov-16 10:31N 50°02' W 001°44'917.1
2017-Nov-16 10:00N 49°59' W 001°56'917.8
2017-Nov-16 09:30N 49°56' W 002°09'1218.4
2017-Nov-16 08:50N 49°53' W 002°28'718.7
2017-Nov-16 08:28N 49°51' W 002°39'918.7
2017-Nov-16 08:00N 49°49' W 002°51'1018.8
2017-Nov-16 07:28N 49°43' W 003°04'919.0
2017-Nov-16 06:59N 49°39' W 003°17'1318.8
2017-Nov-16 06:16N 49°32' W 003°35'518.7
2017-Nov-16 06:00N 49°30' W 003°42'1018.8
2017-Nov-16 05:28N 49°25' W 003°55'1319.0
2017-Nov-16 04:47N 49°18' W 004°12'719.2
2017-Nov-16 04:27N 49°15' W 004°21'919.3
2017-Nov-16 04:00N 49°11' W 004°32'1319.4
2017-Nov-16 03:19N 49°04' W 004°50'619.5
2017-Nov-16 03:00N 49°01' W 004°58'1019.5
2017-Nov-16 02:30N 48°56' W 005°11'1019.5
2017-Nov-16 02:00N 48°51' W 005°23'1119.3
2017-Nov-16 01:26N 48°45' W 005°37'1119.5
2017-Nov-16 00:52N 48°35' W 005°45'1018.9
2017-Nov-16 00:22N 48°26' W 005°41'719.1
2017-Nov-16 00:00N 48°19' W 005°38'1018.8
2017-Nov-15 23:30N 48°10' W 005°34'918.8
2017-Nov-15 23:00N 48°01' W 005°30'1018.8
2017-Nov-15 22:28N 47°51' W 005°26'918.4
2017-Nov-15 21:59N 47°43' W 005°23'918.5
2017-Nov-15 21:30N 47°34' W 005°19'1118.3
2017-Nov-15 20:55N 47°24' W 005°15'818.4
2017-Nov-15 20:30N 47°16' W 005°12'918.3
2017-Nov-15 20:00N 47°08' W 005°09'918.1
2017-Nov-15 19:30N 46°59' W 005°05'1218.2
2017-Nov-15 18:52N 46°47' W 005°01'1417.8
2017-Nov-15 18:06N 46°34' W 004°56'16917.9
2017-Nov-15 08:40N 43°52' W 003°53'318.4
2017-Nov-15 08:30N 43°49' W 003°52'918.4
2017-Nov-15 08:00N 43°40' W 003°48'918.1
2017-Nov-15 07:30N 43°31' W 003°46'5 9.5
2017-Nov-15 07:00N 43°27' W 003°49'0 0.2
2017-Nov-15 06:29N 43°27' W 003°49'0 0.0
2017-Nov-15 05:59N 43°27' W 003°49'0 0.0
2017-Nov-15 05:29N 43°27' W 003°49'0 0.0
2017-Nov-15 04:59N 43°27' W 003°49'0 0.0
2017-Nov-15 04:29N 43°27' W 003°49'0 0.0
2017-Nov-15 03:53N 43°27' W 003°49'0 0.0
2017-Nov-15 03:29N 43°27' W 003°49'0 0.0
2017-Nov-15 02:59N 43°27' W 003°49'0 0.0
2017-Nov-15 02:29N 43°27' W 003°49'0 0.0
2017-Nov-15 01:59N 43°27' W 003°49'0 0.0
2017-Nov-15 01:30N 43°27' W 003°49'3 5.5
2017-Nov-15 01:00N 43°28' W 003°45'2 4.9
2017-Nov-15 00:30N 43°30' W 003°47'713.1
2017-Nov-15 00:01N 43°32' W 003°55'816.6
2017-Nov-14 23:30N 43°33' W 004°07'5216.3
2017-Nov-14 20:18N 43°41' W 005°18'516.0
2017-Nov-14 20:00N 43°42' W 005°24'816.0
2017-Nov-14 19:30N 43°43' W 005°36'815.9
2017-Nov-14 19:00N 43°45' W 005°46'1015.7
2017-Nov-14 18:23N 43°45' W 005°60'815.8
2017-Nov-14 17:51N 43°46' W 006°11'4115.8
2017-Nov-14 15:16N 43°48' W 007°08'515.7
2017-Nov-14 14:56N 43°48' W 007°15'715.9
2017-Nov-14 14:30N 43°49' W 007°24'815.6
2017-Nov-14 14:01N 43°49' W 007°35'1115.0
2017-Nov-14 13:16N 43°50' W 007°51'415.6
2017-Nov-14 12:59N 43°50' W 007°57'15712.0
2017-Nov-13 23:57N 41°18' W 008°50'716.6
2017-Nov-13 23:30N 41°12' W 008°46'3 5.7
2017-Nov-13 22:58N 41°11' W 008°42'0 0.0
2017-Nov-13 22:28N 41°11' W 008°42'0 0.0
2017-Nov-13 21:58N 41°11' W 008°42'  

Dump ship's entire track history